• Join FlightAware (Why Join?)
  • Login
  • US Flag 
03:12PM EDT


 

Airport Tracker/Info


-or-


 

Live Flight TrackerFlight Track Log ✈ N662US ✈ 16-Jul-2013 ✈ LLBG / TLV - KJFK

Flight Track Log - Related Links

Times and Time Zones

All times are in EDT time to prevent confusion due to time zone crossing. See the N662US flight status page for this flight to view local times or setup timezone preferences in your user account.

Time Position Orientation Groundspeed Altitude Reporting Facility
EDT Latitude Longitude Course Direction KTS MPH feet Rate Location/Type
06:25AM 32.0895 34.7648 310° West  Level FlightAware Approximate
06:26AM 32.1667 34.6499 315° West  Level FlightAware Approximate
06:27AM 32.2551 34.5468 315° West  Level FlightAware Approximate
06:28AM 32.3417 34.4417 313° West  Level FlightAware Approximate
06:29AM 32.4249 34.3324 311° West  Level FlightAware Approximate
06:30AM 32.5061 34.2209 311° West  Level FlightAware Approximate
06:31AM 32.5964 34.1203 320° Northwest  Level FlightAware Approximate
06:32AM 32.6786 34.0110 307° West  Level FlightAware Approximate
06:33AM 32.7605 33.9007 317° Northwest  Level FlightAware Approximate
06:34AM 32.8507 33.7990 311° West  Level FlightAware Approximate
06:35AM 32.9321 33.6872 311° West  Level FlightAware Approximate
06:36AM 33.0141 33.5757 312° West  Level FlightAware Approximate
06:37AM 33.0991 33.4681 309° West  Level FlightAware Approximate
06:38AM 33.1806 33.3560 313° West  Level FlightAware Approximate
06:39AM 33.2654 33.2472 313° West  Level FlightAware Approximate
06:40AM 33.3501 33.1381 313° West  Level FlightAware Approximate
06:41AM 33.4345 33.0286 313° West  Level FlightAware Approximate
06:42AM 33.5188 32.9189 313° West  Level FlightAware Approximate
06:43AM 33.6025 32.8084 312° West  Level FlightAware Approximate
06:44AM 33.6859 32.6975 312° West  Level FlightAware Approximate
06:45AM 33.7692 32.5864 312° West  Level FlightAware Approximate
06:46AM 33.8524 32.4750 312° West  Level FlightAware Approximate
06:47AM 33.9355 32.3635 312° West  Level FlightAware Approximate
06:48AM 34.0186 32.2517 312° West  Level FlightAware Approximate
06:49AM 34.1015 32.1398 312° West  Level FlightAware Approximate
06:50AM 34.1843 32.0276 312° West  Level FlightAware Approximate
06:51AM 34.2670 31.9151 312° West  Level FlightAware Approximate
06:52AM 34.3496 31.8025 312° West  Level FlightAware Approximate
06:53AM 34.4321 31.6896 312° West  Level FlightAware Approximate
06:54AM 34.5145 31.5766 312° West  Level FlightAware Approximate
06:55AM 34.5968 31.4632 311° West  Level FlightAware Approximate
06:56AM 34.6790 31.3497 311° West  Level FlightAware Approximate
06:57AM 34.7612 31.2358 311° West  Level FlightAware Approximate
06:58AM 34.8433 31.1216 311° West  Level FlightAware Approximate
06:59AM 34.9253 31.0072 311° West  Level FlightAware Approximate
07:00AM 35.0072 30.8926 311° West  Level FlightAware Approximate
07:01AM 35.0890 30.7778 311° West  Level FlightAware Approximate
07:02AM 35.1707 30.6627 311° West  Level FlightAware Approximate
07:03AM 35.2523 30.5474 311° West  Level FlightAware Approximate
07:04AM 35.3337 30.4319 311° West  Level FlightAware Approximate
07:05AM 35.4151 30.3161 311° West  Level FlightAware Approximate
07:06AM 35.4963 30.2001 311° West  Level FlightAware Approximate
07:07AM 35.5774 30.0839 311° West  Level FlightAware Approximate
07:08AM 35.6585 29.9674 311° West  Level FlightAware Approximate
07:09AM 35.7393 29.8507 311° West  Level FlightAware Approximate
07:10AM 35.8201 29.7337 310° West  Level FlightAware Approximate
07:11AM 35.9008 29.6165 310° West  Level FlightAware Approximate
07:12AM 35.9814 29.4991 310° West  Level FlightAware Approximate
07:13AM 36.0618 29.3815 310° West  Level FlightAware Approximate
07:14AM 36.1422 29.2635 310° West  Level FlightAware Approximate
07:15AM 36.2224 29.1454 310° West  Level FlightAware Approximate
07:16AM 36.3025 29.0270 310° West  Level FlightAware Approximate
07:17AM 36.3824 28.9084 310° West  Level FlightAware Approximate
07:18AM 36.4623 28.7895 310° West  Level FlightAware Approximate
07:19AM 36.5420 28.6704 310° West  Level FlightAware Approximate
07:20AM 36.6217 28.5510 310° West  Level FlightAware Approximate
07:21AM 36.7012 28.4314 310° West  Level FlightAware Approximate
07:22AM 36.7806 28.3115 310° West  Level FlightAware Approximate
07:23AM 36.8599 28.1914 310° West  Level FlightAware Approximate
07:24AM 36.9390 28.0711 309° West  Level FlightAware Approximate
07:25AM 37.0180 27.9505 309° West  Level FlightAware Approximate
07:26AM 37.0969 27.8296 309° West  Level FlightAware Approximate
07:27AM 37.1757 27.7085 309° West  Level FlightAware Approximate
07:28AM 37.2544 27.5871 309° West  Level FlightAware Approximate
07:29AM 37.3329 27.4655 309° West  Level FlightAware Approximate
07:30AM 37.4113 27.3436 309° West  Level FlightAware Approximate
07:31AM 37.4896 27.2215 309° West  Level FlightAware Approximate
07:32AM 37.5677 27.0991 309° West  Level FlightAware Approximate
07:33AM 37.6458 26.9765 309° West  Level FlightAware Approximate
07:34AM 37.7237 26.8536 309° West  Level FlightAware Approximate
07:35AM 37.8014 26.7304 309° West  Level FlightAware Approximate
07:36AM 37.8791 26.6070 309° West  Level FlightAware Approximate
07:37AM 37.9566 26.4833 309° West  Level FlightAware Approximate
07:38AM 38.0340 26.3594 308° West  Level FlightAware Approximate
07:39AM 38.1113 26.2352 308° West  Level FlightAware Approximate
07:40AM 38.1884 26.1107 308° West  Level FlightAware Approximate
07:41AM 38.2654 25.9860 308° West  Level FlightAware Approximate
07:42AM 38.3422 25.8610 308° West  Level FlightAware Approximate
07:43AM 38.4190 25.7358 308° West  Level FlightAware Approximate
07:44AM 38.4956 25.6102 308° West  Level FlightAware Approximate
07:45AM 38.5720 25.4844 308° West  Level FlightAware Approximate
07:46AM 38.6483 25.3584 308° West  Level FlightAware Approximate
07:47AM 38.7245 25.2320 308° West  Level FlightAware Approximate
07:48AM 38.8006 25.1055 308° West  Level FlightAware Approximate
07:49AM 38.8765 24.9786 308° West  Level FlightAware Approximate
07:50AM 38.9523 24.8514 307° West  Level FlightAware Approximate
07:51AM 39.0279 24.7240 307° West  Level FlightAware Approximate
07:52AM 39.1034 24.5964 307° West  Level FlightAware Approximate
07:53AM 39.1788 24.4684 307° West  Level FlightAware Approximate
07:54AM 39.2540 24.3402 307° West  Level FlightAware Approximate
07:55AM 39.3291 24.2117 307° West  Level FlightAware Approximate
07:56AM 39.4040 24.0829 307° West  Level FlightAware Approximate
07:57AM 39.4788 23.9538 307° West  Level FlightAware Approximate
07:58AM 39.5535 23.8245 307° West  Level FlightAware Approximate
07:59AM 39.6280 23.6949 307° West  Level FlightAware Approximate
08:00AM 39.7024 23.5650 307° West  Level FlightAware Approximate
08:01AM 39.7766 23.4348 307° West  Level FlightAware Approximate
08:02AM 39.8507 23.3044 307° West  Level FlightAware Approximate
08:03AM 39.9246 23.1737 306° West  Level FlightAware Approximate
08:04AM 39.9984 23.0426 306° West  Level FlightAware Approximate
08:05AM 40.0720 22.9113 306° West  Level FlightAware Approximate
08:06AM 40.1455 22.7798 306° West  Level FlightAware Approximate
08:07AM 40.2188 22.6479 306° West  Level FlightAware Approximate
08:08AM 40.2920 22.5157 306° West  Level FlightAware Approximate
08:09AM 40.3651 22.3833 306° West  Level FlightAware Approximate
08:10AM 40.4379 22.2506 306° West  Level FlightAware Approximate
08:11AM 40.5107 22.1176 306° West  Level FlightAware Approximate
08:12AM 40.5832 21.9843 306° West  Level FlightAware Approximate
08:13AM 40.6557 21.8507 306° West  Level FlightAware Approximate
08:14AM 40.7280 21.7168 305° West  Level FlightAware Approximate
08:15AM 40.8001 21.5826 305° West  Level FlightAware Approximate
08:16AM 40.8720 21.4482 305° West  Level FlightAware Approximate
08:17AM 40.9438 21.3134 305° West  Level FlightAware Approximate
08:18AM 41.0155 21.1783 305° West  Level FlightAware Approximate
08:19AM 41.0870 21.0430 305° West  Level FlightAware Approximate
08:20AM 41.1583 20.9074 305° West  Level FlightAware Approximate
08:21AM 41.2295 20.7714 305° West  Level FlightAware Approximate
08:22AM 41.3005 20.6352 305° West  Level FlightAware Approximate
08:23AM 41.3713 20.4987 305° West  Level FlightAware Approximate
08:24AM 41.4420 20.3619 305° West  Level FlightAware Approximate
08:25AM 41.5126 20.2247 305° West  Level FlightAware Approximate
08:26AM 41.5829 20.0873 304° West  Level FlightAware Approximate
08:27AM 41.6531 19.9496 304° West  Level FlightAware Approximate
08:28AM 41.7231 19.8116 304° West  Level FlightAware Approximate
08:29AM 41.7930 19.6733 304° West  Level FlightAware Approximate
08:30AM 41.8628 19.5344 304° West  Level FlightAware Approximate
08:31AM 41.9325 19.3953 304° West  Level FlightAware Approximate
08:32AM 42.0019 19.2558 304° West  Level FlightAware Approximate
08:33AM 42.0712 19.1161 304° West  Level FlightAware Approximate
08:34AM 42.1404 18.9760 304° West  Level FlightAware Approximate
08:35AM 42.2093 18.8357 304° West  Level FlightAware Approximate
08:36AM 42.2781 18.6950 303° West  Level FlightAware Approximate
08:37AM 42.3467 18.5541 303° West  Level FlightAware Approximate
08:38AM 42.4152 18.4128 303° West  Level FlightAware Approximate
08:39AM 42.4835 18.2712 303° West  Level FlightAware Approximate
08:40AM 42.5516 18.1293 303° West  Level FlightAware Approximate
08:41AM 42.6195 17.9871 303° West  Level FlightAware Approximate
08:42AM 42.6872 17.8446 303° West  Level FlightAware Approximate
08:43AM 42.7548 17.7017 303° West  Level FlightAware Approximate
08:44AM 42.8222 17.5586 303° West  Level FlightAware Approximate
08:45AM 42.8894 17.4152 303° West  Level FlightAware Approximate
08:46AM 42.9564 17.2714 303° West  Level FlightAware Approximate
08:47AM 43.0233 17.1273 302° West  Level FlightAware Approximate
08:48AM 43.0899 16.9829 302° West  Level FlightAware Approximate
08:49AM 43.1564 16.8382 302° West  Level FlightAware Approximate
08:50AM 43.2227 16.6932 302° West  Level FlightAware Approximate
08:51AM 43.2889 16.5479 302° West  Level FlightAware Approximate
08:52AM 43.3548 16.4022 302° West  Level FlightAware Approximate
08:53AM 43.4206 16.2563 302° West  Level FlightAware Approximate
08:54AM 43.4861 16.1100 302° West  Level FlightAware Approximate
08:55AM 43.5515 15.9634 302° West  Level FlightAware Approximate
08:56AM 43.6167 15.8165 302° West  Level FlightAware Approximate
08:57AM 43.6817 15.6692 301° West  Level FlightAware Approximate
08:58AM 43.7465 15.5217 301° West  Level FlightAware Approximate
08:59AM 43.8111 15.3738 301° West  Level FlightAware Approximate
09:00AM 43.8756 15.2256 301° West  Level FlightAware Approximate
09:01AM 43.9398 15.0771 301° West  Level FlightAware Approximate
09:02AM 44.0038 14.9283 301° West  Level FlightAware Approximate
09:03AM 44.0677 14.7791 301° West  Level FlightAware Approximate
09:04AM 44.1314 14.6297 301° West  Level FlightAware Approximate
09:05AM 44.1948 14.4799 301° West  Level FlightAware Approximate
09:06AM 44.2581 14.3297 301° West  Level FlightAware Approximate
09:07AM 44.3212 14.1793 300° West  Level FlightAware Approximate
09:08AM 44.3840 14.0285 300° West  Level FlightAware Approximate
09:09AM 44.4468 13.8774 300° West  Level FlightAware Approximate
09:10AM 44.5093 13.7261 300° West  Level FlightAware Approximate
09:11AM 44.5716 13.5744 300° West  Level FlightAware Approximate
09:12AM 44.6337 13.4223 300° West  Level FlightAware Approximate
09:13AM 44.6956 13.2700 300° West  Level FlightAware Approximate
09:14AM 44.7574 13.1173 300° West  Level FlightAware Approximate
09:15AM 44.8189 12.9643 300° West  Level FlightAware Approximate
09:16AM 44.8802 12.8110 299° West  Level FlightAware Approximate
09:17AM 44.9413 12.6573 299° West  Level FlightAware Approximate
09:18AM 45.0022 12.5033 299° West  Level FlightAware Approximate
09:19AM 45.0629 12.3490 299° West  Level FlightAware Approximate
09:20AM 45.1233 12.1944 299° West  Level FlightAware Approximate
09:21AM 45.1836 12.0394 299° West  Level FlightAware Approximate
09:22AM 45.2437 11.8841 299° West  Level FlightAware Approximate
09:23AM 45.3035 11.7285 299° West  Level FlightAware Approximate
09:24AM 45.3632 11.5725 299° West  Level FlightAware Approximate
09:25AM 45.4226 11.4162 298° West  Level FlightAware Approximate
09:26AM 45.4818 11.2596 298° West  Level FlightAware Approximate
09:27AM 45.5408 11.1027 298° West  Level FlightAware Approximate
09:28AM 45.5996 10.9454 298° West  Level FlightAware Approximate
09:29AM 45.6581 10.7878 298° West  Level FlightAware Approximate
09:30AM 45.7165 10.6299 298° West  Level FlightAware Approximate
09:31AM 45.7746 10.4716 298° West  Level FlightAware Approximate
09:32AM 45.8325 10.3130 298° West  Level FlightAware Approximate
09:33AM 45.8902 10.1541 298° West  Level FlightAware Approximate
09:34AM 45.9477 9.9949 297° West  Level FlightAware Approximate
09:35AM 46.0049 9.8353 297° West  Level FlightAware Approximate
09:36AM 46.0619 9.6754 297° West  Level FlightAware Approximate
09:37AM 46.1187 9.5152 297° West  Level FlightAware Approximate
09:38AM 46.1753 9.3546 297° West  Level FlightAware Approximate
09:39AM 46.2317 9.1937 297° West  Level FlightAware Approximate
09:40AM 46.2878 9.0325 297° West  Level FlightAware Approximate
09:41AM 46.3437 8.8709 297° West  Level FlightAware Approximate
09:42AM 46.3994 8.7090 297° West  Level FlightAware Approximate
09:43AM 46.4548 8.5468 296° West  Level FlightAware Approximate
09:44AM 46.5100 8.3842 296° West  Level FlightAware Approximate
09:45AM 46.5650 8.2214 296° West  Level FlightAware Approximate
09:46AM 46.6198 8.0582 296° West  Level FlightAware Approximate
09:47AM 46.6743 7.8946 296° West  Level FlightAware Approximate
09:48AM 46.7285 7.7308 296° West  Level FlightAware Approximate
09:49AM 46.7826 7.5666 296° West  Level FlightAware Approximate
09:50AM 46.8364 7.4021 296° West  Level FlightAware Approximate
09:51AM 46.8900 7.2372 295° West  Level FlightAware Approximate
09:52AM 46.9433 7.0720 295° West  Level FlightAware Approximate
09:53AM 46.9964 6.9065 295° West  Level FlightAware Approximate
09:54AM 47.0493 6.7407 295° West  Level FlightAware Approximate
09:55AM 47.1018 6.5745 295° West  Level FlightAware Approximate
09:56AM 47.1540 6.4079 295° West  Level FlightAware Approximate
09:57AM 47.2059 6.2409 295° West  Level FlightAware Approximate
09:58AM 47.2576 6.0736 295° West  Level FlightAware Approximate
09:59AM 47.3091 5.9060 294° West  Level FlightAware Approximate
10:00AM 47.3602 5.7380 294° West  Level FlightAware Approximate
10:01AM 47.4112 5.5698 294° West  Level FlightAware Approximate
10:02AM 47.4619 5.4012 294° West  Level FlightAware Approximate
10:03AM 47.5124 5.2323 294° West  Level FlightAware Approximate
10:04AM 47.5626 5.0630 294° West  Level FlightAware Approximate
10:05AM 47.6125 4.8934 294° West  Level FlightAware Approximate
10:06AM 47.6622 4.7236 294° West  Level FlightAware Approximate
10:07AM 47.7117 4.5533 293° West  Level FlightAware Approximate
10:08AM 47.7609 4.3828 293° West  Level FlightAware Approximate
10:09AM 47.8098 4.2119 293° West  Level FlightAware Approximate
10:10AM 47.8586 4.0408 293° West  Level FlightAware Approximate
10:11AM 47.9070 3.8693 293° West  Level FlightAware Approximate
10:12AM 47.9552 3.6974 293° West  Level FlightAware Approximate
10:13AM 48.0031 3.5253 293° West  Level FlightAware Approximate
10:14AM 48.0508 3.3528 293° West  Level FlightAware Approximate
10:15AM 48.0982 3.1801 292° West  Level FlightAware Approximate
10:16AM 48.1453 3.0070 292° West  Level FlightAware Approximate
10:17AM 48.1922 2.8335 292° West  Level FlightAware Approximate
10:18AM 48.2389 2.6598 292° West  Level FlightAware Approximate
10:19AM 48.2852 2.4858 292° West  Level FlightAware Approximate
10:20AM 48.3313 2.3114 292° West  Level FlightAware Approximate
10:21AM 48.3772 2.1367 292° West  Level FlightAware Approximate
10:22AM 48.4228 1.9617 291° West  Level FlightAware Approximate
10:23AM 48.4681 1.7864 291° West  Level FlightAware Approximate
10:24AM 48.5131 1.6108 291° West  Level FlightAware Approximate
10:25AM 48.5579 1.4349 291° West  Level FlightAware Approximate
10:26AM 48.6024 1.2586 291° West  Level FlightAware Approximate
10:27AM 48.6466 1.0821 291° West  Level FlightAware Approximate
10:28AM 48.6906 0.9052 291° West  Level FlightAware Approximate
10:29AM 48.7343 0.7281 291° West  Level FlightAware Approximate
10:30AM 48.7777 0.5506 290° West  Level FlightAware Approximate
10:31AM 48.8209 0.3728 290° West  Level FlightAware Approximate
10:32AM 48.8638 0.1947 290° West  Level FlightAware Approximate
10:33AM 48.9064 0.0163 290° West  Level FlightAware Approximate
10:34AM 48.9487 -0.1624 290° West  Level FlightAware Approximate
10:35AM 48.9907 -0.3414 290° West  Level FlightAware Approximate
10:36AM 49.0325 -0.5207 290° West  Level FlightAware Approximate
10:37AM 49.0740 -0.7003 289° West  Level FlightAware Approximate
10:38AM 49.1152 -0.8802 289° West  Level FlightAware Approximate
10:39AM 49.1562 -1.0604 289° West  Level FlightAware Approximate
10:40AM 49.1968 -1.2408 289° West  Level FlightAware Approximate
10:41AM 49.2372 -1.4216 289° West  Level FlightAware Approximate
10:42AM 49.2773 -1.6027 289° West  Level FlightAware Approximate
10:43AM 49.3171 -1.7841 289° West  Level FlightAware Approximate
10:44AM 49.3566 -1.9658 289° West  Level FlightAware Approximate
10:45AM 49.3959 -2.1477 288° West  Level FlightAware Approximate
10:46AM 49.4348 -2.3300 288° West  Level FlightAware Approximate
10:47AM 49.4735 -2.5125 288° West  Level FlightAware Approximate
10:48AM 49.5119 -2.6953 288° West  Level FlightAware Approximate
10:49AM 49.5500 -2.8785 288° West  Level FlightAware Approximate
10:50AM 49.5878 -3.0619 288° West  Level FlightAware Approximate
10:51AM 49.6253 -3.2455 288° West  Level FlightAware Approximate
10:52AM 49.6625 -3.4295 287° West  Level FlightAware Approximate
10:53AM 49.6994 -3.6137 287° West  Level FlightAware Approximate
10:54AM 49.7377 -3.7975 288° West  Level FlightAware Approximate
10:55AM 49.7757 -3.9815 288° West  Level FlightAware Approximate
10:56AM 49.8128 -4.1660 287° West  Level FlightAware Approximate
10:57AM 49.8486 -4.3514 287° West  Level FlightAware Approximate
10:58AM 49.8841 -4.5370 287° West  Level FlightAware Approximate
10:59AM 49.9193 -4.7229 286° West  Level FlightAware Approximate
11:00AM 49.9542 -4.9091 286° West  Level FlightAware Approximate
11:01AM 49.9888 -5.0955 286° West  Level FlightAware Approximate
11:02AM 50.0231 -5.2822 286° West  Level FlightAware Approximate
11:03AM 50.0570 -5.4692 286° West  Level FlightAware Approximate
11:04AM 50.0907 -5.6564 286° West  Level FlightAware Approximate
11:05AM 50.1241 -5.8439 286° West  Level FlightAware Approximate
11:06AM 50.1572 -6.0317 285° West  Level FlightAware Approximate
11:07AM 50.1900 -6.2197 285° West  Level FlightAware Approximate
11:08AM 50.2225 -6.4080 285° West  Level FlightAware Approximate
11:09AM 50.2547 -6.5965 285° West  Level FlightAware Approximate
11:10AM 50.2865 -6.7853 285° West  Level FlightAware Approximate
11:11AM 50.3181 -6.9743 285° West  Level FlightAware Approximate
11:12AM 50.3494 -7.1636 285° West  Level FlightAware Approximate
11:13AM 50.3803 -7.3532 284° West  Level FlightAware Approximate
11:14AM 50.4110 -7.5429 284° West  Level FlightAware Approximate
11:15AM 50.4413 -7.7330 284° West  Level FlightAware Approximate
11:16AM 50.4713 -7.9232 284° West  Level FlightAware Approximate
11:17AM 50.5114 -8.1059 284° West  Level FlightAware Approximate
11:18AM 50.5410 -8.2966 284° West  Level FlightAware Approximate
11:19AM 50.5703 -8.4875 284° West  Level FlightAware Approximate
11:20AM 50.5993 -8.6787 284° West  Level FlightAware Approximate
11:21AM 50.6279 -8.8701 283° West  Level FlightAware Approximate
11:22AM 50.6563 -9.0618 283° West  Level FlightAware Approximate
11:23AM 50.6843 -9.2537 283° West  Level FlightAware Approximate
11:24AM 50.7121 -9.4458 283° West  Level FlightAware Approximate
11:25AM 50.7395 -9.6381 283° West  Level FlightAware Approximate
11:26AM 50.7666 -9.8307 283° West  Level FlightAware Approximate
11:27AM 50.7934 -10.0234 282° West  Level FlightAware Approximate
11:28AM 50.8198 -10.2164 282° West  Level FlightAware Approximate
11:29AM 50.8460 -10.4097 282° West  Level FlightAware Approximate
11:30AM 50.8718 -10.6031 282° West  Level FlightAware Approximate
11:31AM 50.8973 -10.7968 282° West  Level FlightAware Approximate
11:32AM 50.9225 -10.9906 282° West  Level FlightAware Approximate
11:33AM 50.9473 -11.1847 282° West  Level FlightAware Approximate
11:34AM 50.9719 -11.3789 281° West  Level FlightAware Approximate
11:35AM 50.9961 -11.5734 281° West  Level FlightAware Approximate
11:36AM 51.0200 -11.7681 281° West  Level FlightAware Approximate
11:37AM 51.0436 -11.9630 281° West  Level FlightAware Approximate
11:38AM 51.0661 -12.1582 280° West  Level FlightAware Approximate
11:39AM 51.0881 -12.3538 280° West  Level FlightAware Approximate
11:40AM 51.1097 -12.5495 280° West  Level FlightAware Approximate
11:41AM 51.1310 -12.7454 280° West  Level FlightAware Approximate
11:42AM 51.1520 -12.9415 280° West  Level FlightAware Approximate
11:43AM 51.1727 -13.1378 280° West  Level FlightAware Approximate
11:44AM 51.1930 -13.3342 279° West  Level FlightAware Approximate
11:45AM 51.2130 -13.5308 279° West  Level FlightAware Approximate
11:46AM 51.2327 -13.7276 279° West  Level FlightAware Approximate
11:47AM 51.2520 -13.9246 279° West  Level FlightAware Approximate
11:48AM 51.2710 -14.1217 279° West  Level FlightAware Approximate
11:49AM 51.2896 -14.3189 279° West  Level FlightAware Approximate
11:50AM 51.3080 -14.5164 279° West  Level FlightAware Approximate
11:51AM 51.3260 -14.7140 278° West  Level FlightAware Approximate
11:52AM 51.3437 -14.9117 278° West  Level FlightAware Approximate
11:53AM 51.3616 -15.1095 278° West  Level FlightAware Approximate
11:54AM 51.3795 -15.3073 278° West  Level FlightAware Approximate
11:55AM 51.3971 -15.5053 278° West  Level FlightAware Approximate
11:56AM 51.4144 -15.7035 278° West  Level FlightAware Approximate
11:57AM 51.4313 -15.9017 278° West  Level FlightAware Approximate
11:58AM 51.4479 -16.1002 278° West  Level FlightAware Approximate
11:59AM 51.4641 -16.2988 278° West  Level FlightAware Approximate
12:00PM 51.4800 -16.4975 277° West  Level FlightAware Approximate
12:01PM 51.4956 -16.6963 277° West  Level FlightAware Approximate
12:02PM 51.5108 -16.8953 277° West  Level FlightAware Approximate
12:03PM 51.5257 -17.0945 277° West  Level FlightAware Approximate
12:04PM 51.5403 -17.2937 277° West  Level FlightAware Approximate
12:05PM 51.5546 -17.4931 277° West  Level FlightAware Approximate
12:06PM 51.5684 -17.6926 276° West  Level FlightAware Approximate
12:07PM 51.5820 -17.8922 276° West  Level FlightAware Approximate
12:08PM 51.5965 -18.1008 276° West  Level Estimated
12:09PM 51.6107 -18.3095 276° West  Level Estimated
12:10PM 51.6244 -18.5183 276° West  Level Estimated
12:11PM 51.6378 -18.7273 276° West  Level Estimated
12:12PM 51.6509 -18.9363 276° West  Level Estimated
12:13PM 51.6635 -19.1455 276° West  Level Estimated
12:14PM 51.6758 -19.3549 275° West  Level Estimated
12:15PM 51.6877 -19.5643 275° West  Level Estimated
12:16PM 51.6993 -19.7738 275° West  Level Estimated
12:17PM 51.7105 -19.9835 275° West  Level Estimated
12:18PM 51.7213 -20.1932 275° West  Level Estimated
12:19PM 51.7317 -20.4030 275° West  Level Estimated
12:20PM 51.7417 -20.6130 275° West  Level Estimated
12:21PM 51.7514 -20.8230 274° West  Level Estimated
12:22PM 51.7607 -21.0331 274° West  Level Estimated
12:23PM 51.7696 -21.2433 274° West  Level Estimated
12:24PM 51.7782 -21.4536 274° West  Level Estimated
12:25PM 51.7864 -21.6640 274° West  Level Estimated
12:26PM 51.7942 -21.8744 274° West  Level Estimated
12:27PM 51.8016 -22.0849 273° West  Level Estimated
12:28PM 51.8087 -22.2955 273° West  Level Estimated
12:29PM 51.8153 -22.5061 273° West  Level Estimated
12:30PM 51.8216 -22.7168 273° West  Level Estimated
12:31PM 51.8276 -22.9276 273° West  Level Estimated
12:32PM 51.8331 -23.1384 273° West  Level Estimated
12:33PM 51.8383 -23.3492 272° West  Level Estimated
12:34PM 51.8431 -23.5602 272° West  Level Estimated
12:35PM 51.8475 -23.7711 272° West  Level Estimated
12:36PM 51.8515 -23.9821 272° West  Level Estimated
12:37PM 51.8552 -24.1931 272° West  Level Estimated
12:38PM 51.8585 -24.4042 272° West  Level Estimated
12:39PM 51.8614 -24.6153 271° West  Level Estimated
12:40PM 51.8639 -24.8264 271° West  Level Estimated
12:41PM 51.8660 -25.0375 271° West  Level Estimated
12:42PM 51.8678 -25.2479 271° West  Level Estimated
12:43PM 51.8692 -25.4583 271° West  Level Estimated
12:44PM 51.8702 -25.6688 271° West  Level Estimated
12:45PM 51.8708 -25.8792 270° West  Level Estimated
12:46PM 51.8711 -26.0897 270° West  Level Estimated
12:47PM 51.8710 -26.3002 270° West  Level Estimated
12:48PM 51.8705 -26.5106 270° West  Level Estimated
12:49PM 51.8696 -26.7211 270° West  Level Estimated
12:50PM 51.8684 -26.9315 270° West  Level Estimated
12:51PM 51.8668 -27.1419 269° West  Level Estimated
12:52PM 51.8648 -27.3523 269° West  Level Estimated
12:53PM 51.8624 -27.5627 269° West  Level Estimated
12:54PM 51.8597 -27.7731 269° West  Level Estimated
12:55PM 51.8566 -27.9834 269° West  Level Estimated
12:56PM 51.8531 -28.1937 269° West  Level Estimated
12:57PM 51.8492 -28.4040 268° West  Level Estimated
12:58PM 51.8450 -28.6142 268° West  Level Estimated
12:59PM 51.8404 -28.8244 268° West  Level Estimated
01:00PM 51.8354 -29.0346 268° West  Level Estimated
01:01PM 51.8300 -29.2447 268° West  Level Estimated
01:02PM 51.8243 -29.4547 268° West  Level Estimated
01:03PM 51.8182 -29.6647 267° West  Level Estimated
01:04PM 51.8117 -29.8746 267° West  Level Estimated
01:05PM 51.8048 -30.0845 267° West  Level Estimated
01:06PM 51.7976 -30.2943 267° West  Level Estimated
01:07PM 51.7900 -30.5041 267° West  Level Estimated
01:08PM 51.7820 -30.7137 267° West  Level Estimated
01:09PM 51.7737 -30.9233 266° West  Level Estimated
01:10PM 51.7649 -31.1328 266° West  Level Estimated
01:11PM 51.7559 -31.3423 266° West  Level Estimated
01:12PM 51.7464 -31.5516 266° West  Level Estimated
01:13PM 51.7365 -31.7608 266° West  Level Estimated
01:14PM 51.7263 -31.9700 266° West  Level Estimated
01:15PM 51.7158 -32.1791 265° West  Level Estimated
01:16PM 51.7048 -32.3880 265° West  Level Estimated
01:17PM 51.6935 -32.5969 265° West  Level Estimated
01:18PM 51.6818 -32.8056 265° West  Level Estimated
01:19PM 51.6697 -33.0143 265° West  Level Estimated
01:20PM 51.6573 -33.2228 265° West  Level Estimated
01:21PM 51.6445 -33.4312 264° West  Level Estimated
01:22PM 51.6313 -33.6395 264° West  Level Estimated
01:23PM 51.6178 -33.8477 264° West  Level Estimated
01:24PM 51.6039 -34.0557 264° West  Level Estimated
01:25PM 51.5896 -34.2636 264° West  Level Estimated
01:26PM 51.5750 -34.4714 264° West  Level Estimated
01:27PM 51.5600 -34.6791 263° West  Level Estimated
01:28PM 51.5446 -34.8866 263° West  Level Estimated
01:29PM 51.5289 -35.0940 263° West  Level Estimated
01:30PM 51.5127 -35.3012 263° West  Level Estimated
01:31PM 51.4963 -35.5083 263° West  Level Estimated
01:32PM 51.4794 -35.7152 263° West  Level Estimated
01:33PM 51.4622 -35.9220 262° West  Level Estimated
01:34PM 51.4447 -36.1286 262° West  Level Estimated
01:35PM 51.4268 -36.3350 262° West  Level Estimated
01:36PM 51.4085 -36.5413 262° West  Level Estimated
01:37PM 51.3898 -36.7474 262° West  Level Estimated
01:38PM 51.3708 -36.9534 262° West  Level Estimated
01:39PM 51.3514 -37.1592 262° West  Level Estimated
01:40PM 51.3317 -37.3648 261° West  Level Estimated
01:41PM 51.3116 -37.5702 261° West  Level Estimated
01:42PM 51.2912 -37.7755 261° West  Level Estimated
01:43PM 51.2704 -37.9805 261° West  Level Estimated
01:44PM 51.2492 -38.1854 261° West  Level Estimated
01:45PM 51.2277 -38.3901 261° West  Level Estimated
01:46PM 51.2058 -38.5946 260° West  Level Estimated
01:47PM 51.1835 -38.7988 260° West  Level Estimated
01:48PM 51.1609 -39.0029 260° West  Level Estimated
01:49PM 51.1380 -39.2068 260° West  Level Estimated
01:50PM 51.1147 -39.4105 260° West  Level Estimated
01:51PM 51.0910 -39.6140 260° West  Level Estimated
01:52PM 51.0670 -39.8173 259° West  Level Estimated
01:53PM 51.0427 -40.0203 259° West  Level Estimated
01:54PM 51.0180 -40.2232 259° West  Level Estimated
01:55PM 50.9929 -40.4258 259° West  Level Estimated
01:56PM 50.9675 -40.6282 259° West  Level Estimated
01:57PM 50.9417 -40.8304 259° West  Level Estimated
01:58PM 50.9156 -41.0324 258° West  Level Estimated
01:59PM 50.8892 -41.2341 258° West  Level Estimated
02:00PM 50.8624 -41.4356 258° West  Level Estimated
02:01PM 50.8352 -41.6369 258° West  Level Estimated
02:02PM 50.8077 -41.8379 258° West  Level Estimated
02:03PM 50.7799 -42.0387 258° West  Level Estimated
02:04PM 50.7517 -42.2393 258° West  Level Estimated
02:05PM 50.7232 -42.4396 257° West  Level Estimated
02:06PM 50.6943 -42.6396 257° West  Level Estimated
02:07PM 50.6651 -42.8395 257° West  Level Estimated
02:08PM 50.6355 -43.0390 257° West  Level Estimated
02:09PM 50.6056 -43.2383 257° West  Level Estimated
02:10PM 50.5754 -43.4374 257° West  Level Estimated
02:11PM 50.5448 -43.6362 256° West  Level Estimated
02:12PM 50.5139 -43.8348 256° West  Level Estimated
02:13PM 50.4826 -44.0331 256° West  Level Estimated
02:14PM 50.4510 -44.2311 256° West  Level Estimated
02:15PM 50.4191 -44.4288 256° West  Level Estimated
02:16PM 50.3869 -44.6263 256° West  Level Estimated
02:17PM 50.3543 -44.8236 256° West  Level Estimated
02:18PM 50.3214 -45.0205 255° West  Level Estimated
02:19PM 50.2881 -45.2172 255° West  Level Estimated
02:20PM 50.2545 -45.4136 255° West  Level Estimated
02:21PM 50.2206 -45.6097 255° West  Level Estimated
02:22PM 50.1863 -45.8055 255° West  Level Estimated
02:23PM 50.1517 -46.0011 255° West  Level Estimated
02:24PM 50.1169 -46.1964 254° West  Level Estimated
02:25PM 50.0816 -46.3913 254° West  Level Estimated
02:26PM 50.0461 -46.5860 254° West  Level Estimated
02:27PM 50.0102 -46.7805 254° West  Level Estimated
02:28PM 49.9740 -46.9746 254° West  Level Estimated
02:29PM 49.9374 -47.1684 254° West  Level Estimated
02:30PM 49.9006 -47.3619 254° West  Level Estimated
02:31PM 49.8634 -47.5552 253° West  Level Estimated
02:32PM 49.8259 -47.7481 253° West  Level Estimated
02:33PM 49.7881 -47.9407 253° West  Level Estimated
02:34PM 49.7500 -48.1330 253° West  Level Estimated
02:35PM 49.7115 -48.3251 253° West  Level Estimated
02:36PM 49.6728 -48.5168 253° West  Level Estimated
02:37PM 49.6337 -48.7082 253° West  Level Estimated
02:38PM 49.5943 -48.8993 252° West  Level Estimated
02:39PM 49.5546 -49.0901 252° West  Level Estimated
02:40PM 49.5145 -49.2806 252° West  Level Estimated
02:41PM 49.4742 -49.4708 252° West  Level Estimated
02:42PM 49.4336 -49.6607 252° West  Level Estimated
02:43PM 49.3926 -49.8502 252° West  Level Estimated
02:44PM 49.3513 -50.0394 252° West  Level Estimated
02:45PM 49.3097 -50.2284 251° West  Level Estimated
02:46PM 49.2678 -50.4169 251° West  Level Estimated
02:47PM 49.2257 -50.6052 251° West  Level Estimated
02:48PM 49.1832 -50.7932 251° West  Level Estimated
02:49PM 49.1404 -50.9808 251° West  Level Estimated
02:50PM 49.0973 -51.1681 251° West  Level Estimated
02:51PM 49.0538 -51.3550 251° West  Level Estimated
02:52PM 49.0101 -51.5417 250° West  Level Estimated
02:53PM 48.9661 -51.7280 250° West  Level Estimated
02:54PM 48.9218 -51.9140 250° West  Level Estimated
02:55PM 48.8772 -52.0997 250° West  Level Estimated
02:56PM 48.8323 -52.2850 250° West  Level Estimated
02:57PM 48.7871 -52.4700 250° West  Level Estimated
02:58PM 48.7416 -52.6546 250° West  Level Estimated
02:59PM 48.6958 -52.8390 249° West  Level Estimated
02:59PM 54.0000 -54.3333 249° West 480 552 35,900  Level Gander Center
03:00PM 48.6497 -53.0229 249° West  Level Estimated
03:00PM 53.9500 -54.5667 250° West 480 552 35,900  Level Gander Center
03:01PM 48.6033 -53.2066 249° West  Level Estimated
03:01PM 53.8833 -54.7833 243° Southwest 480 552 35,900  Level Gander Center
03:02PM 48.5567 -53.3899 249° West  Level Estimated
03:02PM 53.8333 -55.0167 250° West 490 564 35,900  Level Gander Center
03:03PM 48.5097 -53.5729 249° West  Level Estimated
03:03PM 53.7500 -55.2000 232° Southwest 490 564 35,900  Level Moncton Center
03:04PM 48.4624 -53.7555 249° West  Level Estimated
03:04PM 53.6667 -55.3833 233° Southwest 500 575 35,900  Level Moncton Center
03:05PM 48.4149 -53.9378 249° West  Level Estimated
03:05PM 53.5833 -55.5333 227° Southwest 490 564 35,900  Level Gander Center
03:06PM 53.4833 -55.7167 228° Southwest 490 564 35,900  Level Gander Center
03:07PM 53.4000 -55.9000 233° Southwest 490 564 35,900  Level Gander Center
03:08PM 53.3167 -56.0500 227° Southwest 490 564 35,900  Level Gander Center
03:09PM 53.2167 -56.2167 225° Southwest 490 564 35,900  Level Gander Center
03:10PM 53.1333 -56.4000 233° Southwest 490 564 35,900  Level Gander Center
03:11PM 53.0333 -56.5833 228° Southwest 490 564 35,900 180 Level Gander Center
03:12PM 52.9500 -56.7333 227° Southwest 500 575 36,300 780 Climbing Gander Center
03:13PM 52.8500 -56.9000 225° Southwest 500 575 37,500 780 Climbing Gander Center
03:14PM 52.7500 -57.0833 228° Southwest 490 564 37,900 180 Climbing Gander Center
03:15PM 52.6667 -57.2333 228° Southwest 490 564 37,900  Level Gander Center
03:16PM 52.5667 -57.4000 225° Southwest 490 564 37,900  Level Gander Center
03:17PM 52.4667 -57.5833 228° Southwest 490 564 38,000  Climbing Gander Center
03:18PM 52.3667 -57.7500 226° Southwest 490 564 38,000  Level Gander Center
03:19PM 52.2833 -57.9167 231° Southwest 490 564 38,000  Level Moncton Center
03:20PM 52.1833 -58.0667 223° Southwest 490 564 38,000  Level Moncton Center
03:21PM 52.1000 -58.2333 231° Southwest 490 564 38,000  Level Gander Center
03:22PM 52.0000 -58.4000 226° Southwest 490 564 38,000  Level Gander Center
03:23PM 51.9167 -58.5500 228° Southwest 500 575 38,000  Level Gander Center
03:24PM 51.8167 -58.7167 226° Southwest 500 575 38,000  Level Gander Center
03:25PM 51.7167 -58.8833 226° Southwest 490 564 38,000  Level Gander Center
03:26PM 51.6167 -59.0167 220° Southwest 490 564 38,000  Level Gander Center
03:27PM 51.5167 -59.1833 226° Southwest 490 564 38,000  Level Gander Center
03:28PM 51.4167 -59.3500 226° Southwest 490 564 38,000  Level Gander Center
03:29PM 51.3333 -59.5167 231° Southwest 490 564 38,000  Level Gander Center
03:30PM 51.2167 -59.6667 219° Southwest 490 564 38,000  Level Moncton Center
03:31PM 51.1500 -59.8000 231° Southwest 490 564 38,000  Level Moncton Center
03:32PM 51.0500 -59.9833 229° Southwest 500 575 38,000  Level Gander Center
03:33PM 50.9500 -60.1167 220° Southwest 490 564 38,000  Level Gander Center
03:34PM 50.8500 -60.2833 226° Southwest 500 575 38,000  Level Gander Center
03:35PM 50.7500 -60.4333 224° Southwest 490 564 38,000  Level Gander Center
03:36PM 50.6500 -60.6000 227° Southwest 490 564 38,000  Level Gander Center
03:37PM 50.5500 -60.7333 220° Southwest 490 564 38,000  Level Gander Center
03:38PM 50.4500 -60.8833 224° Southwest 490 564 38,000  Level Gander Center
03:39PM 50.3667 -61.0167 226° Southwest 490 564 38,000  Level Gander Center
03:40PM 50.2667 -61.1833 227° Southwest 490 564 38,000  Level Gander Center
03:41PM 50.1667 -61.3333 224° Southwest 490 564 38,000  Level Gander Center
03:42PM 50.0667 -61.4833 224° Southwest 490 564 38,000  Level Gander Center
03:43PM 49.9667 -61.6167 221° Southwest 480 552 38,000  Level Gander Center
03:44PM 49.8833 -61.7500 226° Southwest 480 552 38,000  Level Gander Center
03:45PM 49.7833 -61.9000 224° Southwest 480 552 38,000  Level Gander Center
03:46PM 49.6833 -62.0667 227° Southwest 480 552 38,000  Level Moncton Center
03:47PM 49.5667 -62.2000 217° Southwest 480 552 38,000  Level Moncton Center
03:48PM 49.4833 -62.3333 226° Southwest 480 552 38,000  Level Moncton Center
03:49PM 49.3833 -62.4833 224° Southwest 490 564 38,000  Level Gander Center
03:50PM 49.3000 -62.6333 230° Southwest 500 575 38,000  Level Gander Center
03:51PM 49.1667 -62.7833 216° Southwest 500 575 38,000  Level Gander Center
03:52PM 49.0833 -62.9167 226° Southwest 500 575 38,000  Level Gander Center
03:53PM 48.9833 -63.0667 225° Southwest 510 587 38,000  Level Gander Center
03:54PM 48.8667 -63.2167 220° Southwest 500 575 38,000  Level Gander Center
03:55PM 48.7833 -63.3667 230° Southwest 500 575 38,000  Level Gander Center
03:56PM 48.6833 -63.5167 225° Southwest 500 575 38,000  Level Gander Center
03:57PM 48.5667 -63.6333 214° Southwest 490 564 38,000  Level Gander Center
03:58PM 48.4667 -63.7833 225° Southwest 480 552 38,000  Level Moncton Center
03:59PM 48.3667 -63.9167 222° Southwest 470 541 38,000  Level Moncton Center
04:00PM 48.2667 -64.0500 222° Southwest 470 541 38,000  Level Moncton Center
04:01PM 48.1667 -64.1667 218° Southwest 460 529 38,000  Level Moncton Center
04:02PM 48.0667 -64.3000 222° Southwest 460 529 38,000  Level Moncton Center
04:03PM 47.9833 -64.4167 223° Southwest 460 529 38,000  Level Moncton Center
04:04PM 47.8833 -64.5667 225° Southwest 460 529 38,000  Level Moncton Center
04:05PM 47.7833 -64.6667 214° Southwest 450 518 38,000  Level Moncton Center
04:06PM 47.7000 -64.8167 230° Southwest 450 518 38,000  Level Moncton Center
04:07PM 47.6000 -64.9500 222° Southwest 450 518 38,000  Level Moncton Center
04:08PM 47.5167 -65.0333 214° Southwest 450 518 38,000  Level Moncton Center
04:09PM 47.4167 -65.1833 225° Southwest 450 518 38,000  Level Moncton Center
04:10PM 47.3333 -65.2833 219° Southwest 450 518 38,000  Level Moncton Center
04:11PM 47.2333 -65.4333 226° Southwest 450 518 38,000  Level Moncton Center
04:12PM 47.1333 -65.5500 218° Southwest 450 518 38,000  Level Moncton Center
04:13PM 47.0167 -65.6667 214° Southwest 460 529 38,000  Level Moncton Center
04:14PM 46.9333 -65.8000 228° Southwest 460 529 38,000  Level Moncton Center
04:20PM 46.3400 -66.5470 228° Southwest 482 555 38,000  Level FlightAware
04:21PM 46.2860 -66.6130 220° Southwest 481 554 38,000  Level FlightAware
04:22PM 46.2150 -66.7000 220° Southwest 478 550 38,000  Level FlightAware
04:22PM 46.1360 -66.7960 220° Southwest 477 549 38,000  Level FlightAware
04:23PM 46.0770 -66.8650 219° Southwest 476 548 38,000  Level FlightAware
04:24PM 46.0050 -66.9520 220° Southwest 475 547 38,000  Level FlightAware
04:24PM 45.9390 -67.0310 220° Southwest 468 539 38,000  Level FlightAware
04:25PM 45.8790 -67.1040 220° Southwest 476 548 38,000  Level FlightAware
04:26PM 45.8110 -67.1850 220° Southwest 477 549 38,000  Level FlightAware
04:26PM 45.7350 -67.2750 220° Southwest 479 551 38,000  Level FlightAware
04:27PM 45.6690 -67.3520 219° Southwest 481 554 38,000  Level FlightAware
04:28PM 45.5970 -67.4370 220° Southwest 482 555 38,000  Level FlightAware
04:28PM 45.5190 -67.5290 220° Southwest 484 557 38,000  Level FlightAware
04:29PM 45.4420 -67.6200 220° Southwest 483 556 38,000  Level FlightAware
04:30PM 45.3790 -67.6920 219° Southwest 483 556 38,000  Level FlightAware
04:30PM 45.3160 -67.7760 223° Southwest 471 542 38,000  Level FlightAware
04:31PM 45.2560 -67.8680 227° Southwest 470 541 38,000  Level FlightAware
04:32PM 45.1830 -67.9850 229° Southwest 472 543 38,000  Level FlightAware
04:33PM 45.1170 -68.0890 228° Southwest 477 549 38,000  Level FlightAware
04:33PM 45.0550 -68.1840 227° Southwest 477 549 38,000  Level FlightAware
04:34PM 45.0040 -68.2650 228° Southwest 477 549 38,000  Level FlightAware
04:35PM 44.9460 -68.3550 228° Southwest 477 549 38,000  Level FlightAware
04:35PM 44.8790 -68.4580 227° Southwest 477 549 38,000  Level FlightAware
04:36PM 44.8170 -68.5540 228° Southwest 477 549 38,000  Level FlightAware
04:37PM 44.7530 -68.6510 227° Southwest 479 551 38,000  Level FlightAware
04:37PM 44.6900 -68.7470 227° Southwest 480 552 38,000  Level FlightAware
04:38PM 44.6250 -68.8460 227° Southwest 482 555 38,000  Level FlightAware
04:39PM 44.5690 -68.9310 227° Southwest 483 556 38,000  Level FlightAware
04:39PM 44.5060 -69.0280 228° Southwest 484 557 38,000  Level FlightAware
04:40PM 44.4470 -69.1170 227° Southwest 485 558 38,000  Level FlightAware
04:41PM 44.3840 -69.2090 226° Southwest 485 558 38,000  Level FlightAware
04:42PM 44.3110 -69.3060 224° Southwest 491 565 38,000  Level FlightAware
04:42PM 44.2420 -69.3840 219° Southwest 492 566 38,000  Level FlightAware
04:43PM 44.1640 -69.4710 219° Southwest 492 566 38,000  Level FlightAware
04:44PM 44.0910 -69.5520 219° Southwest 492 566 38,000  Level FlightAware
04:44PM 44.0300 -69.6180 218° Southwest 493 567 38,000  Level FlightAware
04:45PM 43.9480 -69.7060 218° Southwest 494 568 38,000  Level FlightAware
04:46PM 43.8760 -69.7840 218° Southwest 494 568 38,000  Level FlightAware
04:46PM 43.8020 -69.8640 218° Southwest 494 568 38,000  Level FlightAware
04:47PM 43.7270 -69.9460 218° Southwest 493 567 38,000  Level FlightAware
04:48PM 43.6450 -70.0340 218° Southwest 493 567 38,000  Level FlightAware
04:48PM 43.5720 -70.1120 218° Southwest 494 568 38,000  Level FlightAware
04:49PM 43.4960 -70.1930 218° Southwest 494 568 38,000  Level FlightAware
04:50PM 43.4210 -70.2720 217° Southwest 495 570 38,000  Level FlightAware
04:51PM 43.3360 -70.3500 214° Southwest 498 573 38,000  Level FlightAware
04:51PM 43.2530 -70.4170 210° Southwest 499 574 38,000  Level FlightAware
04:52PM 43.1720 -70.4780 209° Southwest 498 573 38,000  Level FlightAware
04:53PM 43.0870 -70.5430 209° Southwest 498 573 38,000  Level FlightAware
04:53PM 43.0160 -70.6000 210° Southwest 498 573 38,000  Level FlightAware
04:54PM 42.9280 -70.6700 210° Southwest 499 574 38,000  Level FlightAware
04:55PM 42.8480 -70.7330 210° Southwest 499 574 38,000  Level FlightAware
04:55PM 42.7680 -70.7950 210° Southwest 498 573 38,000  Level FlightAware
04:56PM 42.6800 -70.8640 210° Southwest 496 571 38,000  Level FlightAware
04:57PM 42.6010 -70.9240 209° Southwest 496 571 38,000  Level FlightAware
04:57PM 42.5140 -70.9920 210° Southwest 495 570 38,000  Level FlightAware
04:58PM 42.4350 -71.0530 210° Southwest 495 570 38,000  Level FlightAware
04:59PM 42.3530 -71.1160 210° Southwest 495 570 38,000  Level FlightAware
04:59PM 42.2650 -71.1830 209° Southwest 497 572 38,000  Level FlightAware
05:00PM 42.1570 -71.2650 209° Southwest 498 573 38,000  Level FlightAware
05:01PM 42.0800 -71.3230 209° Southwest 498 573 38,000 -720 Level FlightAware
05:02PM 41.9850 -71.3960 210° Southwest 497 572 37,000 -1,320 Descending FlightAware
05:03PM 41.9060 -71.4550 209° Southwest 497 572 36,200 -1,320 Descending FlightAware
05:03PM 41.8260 -71.5150 209° Southwest 479 551 35,300 -1,920 Descending FlightAware
05:04PM 41.7380 -71.5800 209° Southwest 476 548 33,500 -2,340 Descending FlightAware
05:05PM 41.6640 -71.6350 209° Southwest 463 533 32,000 -2,340 Descending FlightAware
05:05PM 41.5970 -71.6840 209° Southwest 462 532 30,700 -1,260 Descending FlightAware
05:06PM 41.4710 -71.7750 208° Southwest 456 525 29,700 -1,560 Descending FlightAware
05:07PM 41.3870 -71.8380 209° Southwest 427 491 27,600 -1,500 Descending FlightAware
05:08PM 41.3340 -71.8770 209° Southwest 427 491 27,600  Level FlightAware
05:09PM 41.2630 -71.9290 209° Southwest 427 491 27,600  Level FlightAware
05:09PM 41.2110 -71.9680 209° Southwest 427 491 27,600 -4,500 Level FlightAware
05:10PM 41.2010 -72.1260 265° West 395 455 23,000 -4,260 Descending FlightAware
05:10PM 41.1730 -72.1970 242° Southwest 395 455 23,000 -1,020 Level FlightAware
05:11PM 41.1250 -72.3150 242° Southwest 390 449 21,400 -1,020 Descending FlightAware
05:12PM 41.0970 -72.3850 242° Southwest 390 449 21,400  Level FlightAware
05:13PM 41.0630 -72.4710 242° Southwest 390 449 21,400  Level FlightAware
05:13PM 41.0370 -72.5360 242° Southwest 390 449 21,400  Level FlightAware
05:14PM 41.0100 -72.6020 242° Southwest 390 449 21,400 -4,320 Level FlightAware
05:16PM 40.9000 -72.8280 237° Southwest 316 364 11,800 -4,080 Descending FlightAware
05:16PM 40.8460 -72.8800 216° Southwest 308 354 11,800 -240 Level FlightAware
05:17PM 40.8040 -72.9300 222° Southwest 305 351 11,500 -1,020 Descending FlightAware
05:18PM 40.7590 -72.9870 224° Southwest 302 348 10,400 -1,440 Descending FlightAware
05:18PM 40.7300 -73.0230 223° Southwest 298 343 9,800 -1,200 Descending FlightAware
05:19PM 40.7150 -73.0650 245° Southwest 284 327 9,300 -1,200 Descending FlightAware
05:19PM 40.7140 -73.0790 265° West 282 325 9,100 -1,380 Descending FlightAware
05:19PM 40.7110 -73.1260 265° West 279 321 8,500 -1,320 Descending FlightAware
05:20PM 40.7080 -73.1670 264° West 281 323 8,000 -1,020 Descending FlightAware
05:20PM 40.7050 -73.2190 266° West 281 323 7,600 -780 Descending FlightAware
05:20PM 40.7040 -73.2360 266° West 281 323 7,500 -600 Descending FlightAware
05:21PM 40.7000 -73.2850 264° West 278 320 7,200 -660 Descending FlightAware
05:21PM 40.7080 -73.3390 281° West 272 313 6,800 -480 Descending FlightAware
05:22PM 40.7290 -73.3600 323° Northwest 263 303 6,800  Level FlightAware
05:22PM 40.7500 -73.3900 313° West 262 302 6,800  Level FlightAware
05:22PM 40.7540 -73.4100 285° West 271 312 6,800  Level FlightAware
05:23PM 40.7420 -73.4460 246° West 273 314 6,800  Level FlightAware
05:23PM 40.7190 -73.4630 209° Southwest 276 318 6,800  Level FlightAware
05:24PM 40.6680 -73.4520 171° South 274 315 6,800  Level FlightAware
05:24PM 40.6540 -73.4480 168° South 274 315 6,800  Level FlightAware
05:25PM 40.6030 -73.4640 193° South 270 311 6,800  Level FlightAware
05:25PM 40.5659 -73.4887 207° Southwest 269 310 6,800 -120 Level FlightAware ADS-B
05:26PM 40.5421 -73.5046 207° Southwest 267 307 6,700 -660 Descending FlightAware ADS-B
05:26PM 40.5249 -73.5153 205° Southwest 265 305 6,400 -1,140 Descending FlightAware ADS-B
05:26PM 40.5068 -73.5272 207° Southwest 263 303 6,100 -1,260 Descending FlightAware ADS-B
05:26PM 40.4884 -73.5408 209° Southwest 260 299 5,700 -1,380 Descending FlightAware ADS-B
05:27PM 40.4783 -73.5575 232° Southwest 256 295 5,400 -960 Descending FlightAware ADS-B
05:27PM 40.4658 -73.5809 235° Southwest 244 281 5,200 -900 Descending FlightAware ADS-B
05:27PM 40.4469 -73.6149 234° Southwest 234 269 4,700 -1,140 Descending FlightAware ADS-B
05:28PM 40.4341 -73.6378 234° Southwest 233 268 4,300 -900 Descending FlightAware ADS-B
05:29PM 40.4077 -73.6863 234° Southwest 232 267 3,800 -300 Descending FlightAware ADS-B
05:30PM 40.3980 -73.7618 260° West 202 232 3,800  Level FlightAware ADS-B
05:30PM 40.3962 -73.7844 264° West 207 238 3,800  Level FlightAware ADS-B
05:30PM 40.3956 -73.8088 268° West 207 238 3,800  Level FlightAware ADS-B
05:30PM 40.3979 -73.8181 288° West 199 229 3,800  Level FlightAware ADS-B
05:31PM 40.4045 -73.8386 293° West 193 222 3,800  Level FlightAware ADS-B
05:31PM 40.4106 -73.8571 293° West 194 223 3,800 -600 Level FlightAware ADS-B
05:31PM 40.4160 -73.8729 294° West 188 216 3,500 -1,200 Descending FlightAware ADS-B
05:32PM 40.4259 -73.8976 298° West 189 217 3,000 -1,080 Descending FlightAware ADS-B
05:32PM 40.4333 -73.9029 331° Northwest 179 206 2,900 -420 Descending FlightAware ADS-B
05:34PM 40.5153 -73.8688 18° North 181 208 2,200 -480 Descending FlightAware ADS-B
05:34PM 40.5360 -73.8530 30° Northeast 178 205 1,700 -840 Descending FlightAware
05:35PM 40.5780 -73.8200 31° Northeast 158 182 800 -900 Descending FlightAware
05:36PM 40.5890 -73.8120 29° Northeast 151 174 600 -900 Descending FlightAware
05:36PM 40.6080 -73.7970 31° Northeast 146 168 200 -960 Descending FlightAware
05:36PM 40.6260 -73.7820 32° Northeast 140 161 -480 Descending FlightAware
05:37PM 40.6380 -73.7730 30° Northeast 39 45  Level FlightAware
05:37PM 40.6390 -73.7730 360° North 18 21  Level FlightAware
05:38PM 40.6400 -73.7730 360° North 24 28  Level FlightAware
05:38PM 40.6400 -73.7750 270° West 26 30  Level FlightAware
05:38PM 40.6390 -73.7750 180° South 2 2  Level FlightAware
05:39PM 40.6380 -73.7760 217° Southwest 19 22  Level FlightAware
05:41PM 40.6370 -73.7760 180° South 21 24  Level FlightAware
05:42PM 40.6380 -73.7750 37° Northeast 27 31  Level FlightAware